createdAt,value
2024-02-29T00:03:53.456Z,101141.75
2024-02-29T00:08:55.185Z,101135.84
2024-02-29T00:13:56.846Z,101128.22
2024-02-29T00:19:00.071Z,101059.16
2024-02-29T00:24:01.784Z,101119.94
2024-02-29T00:29:03.415Z,101121.75
2024-02-29T00:34:06.604Z,101129.94
2024-02-29T00:39:14.354Z,101125.56
2024-02-29T00:44:16.956Z,101133.84
2024-02-29T00:49:20.108Z,101122.63
2024-02-29T00:54:21.769Z,101133.06
2024-02-29T00:59:23.358Z,101123.81
2024-02-29T01:04:26.371Z,101118.94
2024-02-29T01:09:28.149Z,101106.25
2024-02-29T01:14:29.764Z,101114.63
2024-02-29T01:19:32.809Z,101057.16
2024-02-29T01:24:34.472Z,101106.28
2024-02-29T01:29:36.136Z,101099.59
2024-02-29T01:34:39.126Z,101093.63
2024-02-29T01:39:41.034Z,101062.38
2024-02-29T01:44:53.212Z,101063.56
2024-02-29T01:49:59.616Z,101061.13
2024-02-29T01:55:01.497Z,101064.72
2024-02-29T02:00:05.972Z,101058.84
2024-02-29T02:05:10.701Z,101043.25
2024-02-29T02:10:12.440Z,101041.88
2024-02-29T02:15:14.701Z,101039.28
2024-02-29T02:20:18.694Z,100998.97
2024-02-29T02:25:20.524Z,101026.53
2024-02-29T02:30:22.186Z,101022.53
2024-02-29T02:35:25.248Z,101019.06
2024-02-29T02:40:26.917Z,101011.53
2024-02-29T02:45:28.535Z,101007.38
2024-02-29T02:50:31.557Z,100999.69
2024-02-29T02:55:33.211Z,100986.69
2024-02-29T03:00:34.951Z,100993.09
2024-02-29T03:05:38.055Z,100948.00
2024-02-29T03:10:39.844Z,100963.94
2024-02-29T03:15:41.586Z,100973.28
2024-02-29T03:20:44.698Z,100969.97
2024-02-29T03:25:46.609Z,100965.91
2024-02-29T03:30:48.304Z,100953.75
2024-02-29T03:35:51.410Z,100954.69
2024-02-29T03:40:53.268Z,100941.81
2024-02-29T03:45:54.990Z,100922.00
2024-02-29T03:50:58.019Z,100919.19
2024-02-29T03:55:59.735Z,100911.97
2024-02-29T04:01:01.657Z,100913.88
2024-02-29T04:06:05.251Z,100902.38
2024-02-29T04:11:06.950Z,100896.41
2024-02-29T04:16:08.607Z,100906.09
2024-02-29T04:21:11.696Z,100890.81
2024-02-29T04:26:13.401Z,100892.53
2024-02-29T04:31:15.180Z,100888.84
2024-02-29T04:36:18.445Z,100886.25
2024-02-29T04:41:20.135Z,100888.06
2024-02-29T04:46:21.885Z,100881.91
2024-02-29T04:51:24.893Z,100870.16
2024-02-29T04:56:26.617Z,100870.41
2024-02-29T05:01:28.339Z,100867.88
2024-02-29T05:06:31.452Z,100863.56
2024-02-29T05:11:33.686Z,100859.03
2024-02-29T05:16:36.198Z,100850.31
2024-02-29T05:21:39.393Z,100845.97
2024-02-29T05:26:41.009Z,100845.84
2024-02-29T05:31:49.876Z,100815.09
2024-02-29T05:36:53.146Z,100834.66
2024-02-29T05:41:56.213Z,100822.25
2024-02-29T05:46:57.909Z,100818.03
2024-02-29T05:52:01.006Z,100800.81
2024-02-29T05:57:05.973Z,100818.84
2024-02-29T06:02:08.124Z,100823.78
2024-02-29T06:07:11.326Z,100784.78
2024-02-29T06:12:13.018Z,100812.78
2024-02-29T06:17:14.687Z,100800.72
2024-02-29T06:22:17.943Z,100795.63
2024-02-29T06:27:22.564Z,100801.16
2024-02-29T06:32:24.171Z,100800.78
2024-02-29T06:37:27.424Z,100806.28
2024-02-29T06:42:29.127Z,100804.28
2024-02-29T06:47:30.837Z,100798.84
2024-02-29T06:52:33.843Z,100799.50
2024-02-29T06:57:35.641Z,100780.78
2024-02-29T07:02:37.260Z,100801.53
2024-02-29T07:07:40.212Z,100781.56
2024-02-29T07:12:42.408Z,100791.16
2024-02-29T07:17:44.187Z,100785.06
2024-02-29T07:22:48.716Z,100763.69
2024-02-29T07:27:50.513Z,100767.84
2024-02-29T07:32:52.254Z,100763.13
2024-02-29T07:37:55.362Z,100758.47
2024-02-29T07:42:57.103Z,100752.50
2024-02-29T07:47:59.054Z,100761.22
2024-02-29T07:53:02.141Z,100753.59
2024-02-29T07:58:04.027Z,100752.16
2024-02-29T08:03:05.955Z,100745.75
2024-02-29T08:08:08.937Z,100732.06
2024-02-29T08:13:10.636Z,100722.91
2024-02-29T08:18:12.347Z,100718.16
2024-02-29T08:23:15.412Z,100707.31
2024-02-29T08:28:17.183Z,100723.38
2024-02-29T08:33:18.918Z,100713.84
2024-02-29T08:38:22.108Z,100706.75
2024-02-29T08:43:23.654Z,100706.41
2024-02-29T08:48:25.329Z,100702.88
2024-02-29T08:53:28.358Z,100698.66
2024-02-29T08:58:30.052Z,100672.69
2024-02-29T09:03:31.661Z,100683.41
2024-02-29T09:08:34.728Z,100679.53
2024-02-29T09:13:36.538Z,100669.09
2024-02-29T09:18:38.277Z,100640.38
2024-02-29T09:23:41.295Z,100648.19
2024-02-29T09:28:42.796Z,100648.63
2024-02-29T09:33:44.541Z,100642.06
2024-02-29T09:38:48.055Z,100632.78
2024-02-29T09:43:50.657Z,100641.69
2024-02-29T09:48:52.425Z,100633.47
2024-02-29T09:53:55.891Z,100637.13
2024-02-29T09:58:58.962Z,100633.75
2024-02-29T10:04:01.351Z,100621.78
2024-02-29T10:09:04.443Z,100625.47
2024-02-29T10:14:06.172Z,100615.56
2024-02-29T10:19:12.260Z,100619.09
2024-02-29T10:24:15.444Z,100611.00
2024-02-29T10:29:17.675Z,100611.94
2024-02-29T10:34:20.639Z,100589.75
2024-02-29T10:39:24.012Z,100590.88
2024-02-29T10:44:31.486Z,100583.03
2024-02-29T10:49:38.629Z,100557.47
2024-02-29T10:54:49.745Z,100562.16
2024-02-29T10:59:59.196Z,100566.34
2024-02-29T11:05:01.460Z,100540.31
2024-02-29T11:10:06.061Z,100552.28
2024-02-29T11:15:11.497Z,100538.81
2024-02-29T11:20:20.418Z,100524.28
2024-02-29T11:25:23.902Z,100515.06
2024-02-29T11:30:25.834Z,100505.97
2024-02-29T11:35:27.881Z,100496.91
2024-02-29T11:40:31.904Z,100478.22
2024-02-29T11:45:33.841Z,100461.00
2024-02-29T11:50:35.489Z,100447.75
2024-02-29T11:55:38.656Z,100429.91
2024-02-29T12:00:40.390Z,100429.13
2024-02-29T12:05:42.067Z,100352.34
2024-02-29T12:10:48.979Z,100414.34
2024-02-29T12:15:54.546Z,100403.56
2024-02-29T12:20:57.458Z,100396.53
2024-02-29T12:26:09.228Z,100387.66
2024-02-29T12:31:10.977Z,100387.97
2024-02-29T12:36:14.215Z,100376.31
2024-02-29T12:41:17.348Z,100353.38
2024-02-29T12:46:19.181Z,100348.09
2024-02-29T12:51:20.908Z,100341.09
2024-02-29T12:56:24.104Z,100321.25
2024-02-29T13:01:26.063Z,100309.31
2024-02-29T13:06:27.926Z,100297.56
2024-02-29T13:11:31.039Z,100296.97
2024-02-29T13:16:33.170Z,100199.19
2024-02-29T13:21:34.931Z,100276.47
2024-02-29T13:26:38.418Z,100268.03
2024-02-29T13:31:40.164Z,100260.28
2024-02-29T13:36:41.856Z,100249.00
2024-02-29T13:41:45.015Z,100238.97
2024-02-29T13:46:46.722Z,100227.53
2024-02-29T13:51:48.449Z,100228.22
2024-02-29T13:56:52.515Z,100210.53
2024-02-29T14:01:54.308Z,100205.53
2024-02-29T14:06:56.152Z,100182.53
2024-02-29T14:11:59.148Z,100186.56
2024-02-29T14:17:00.796Z,100149.88
2024-02-29T14:22:02.691Z,100157.41
2024-02-29T14:27:06.125Z,100147.41
2024-02-29T14:32:07.743Z,100141.66
2024-02-29T14:37:09.555Z,100133.13
2024-02-29T14:42:12.571Z,100119.19
2024-02-29T14:47:14.330Z,100122.50
2024-02-29T14:52:16.018Z,100035.97
2024-02-29T14:57:19.125Z,100073.06
2024-02-29T15:02:20.783Z,100092.72
2024-02-29T15:07:22.549Z,100088.25
2024-02-29T15:12:25.765Z,100083.44
2024-02-29T15:17:29.883Z,100077.31
2024-02-29T15:22:32.868Z,100068.63
2024-02-29T15:27:36.013Z,100065.97
2024-02-29T15:32:37.717Z,100058.03
2024-02-29T15:37:39.605Z,100059.66
2024-02-29T15:42:42.904Z,100060.94
2024-02-29T15:47:44.756Z,100053.91
2024-02-29T15:52:46.443Z,100057.00
2024-02-29T15:57:49.480Z,100035.44
2024-02-29T16:02:51.317Z,100036.22
2024-02-29T16:07:55.797Z,100032.59
2024-02-29T16:12:59.373Z,100031.91
2024-02-29T16:18:01.476Z,100029.75
2024-02-29T16:23:03.434Z,100014.69
2024-02-29T16:28:06.877Z,100017.50
2024-02-29T16:33:08.647Z,100018.91
2024-02-29T16:38:10.388Z,100010.53
2024-02-29T16:43:13.426Z,100013.22
2024-02-29T16:48:15.291Z,99997.06
2024-02-29T16:53:16.940Z,100006.19
2024-02-29T16:58:19.999Z,100005.88
2024-02-29T17:03:21.696Z,100008.97
2024-02-29T17:08:23.307Z,100002.50
2024-02-29T17:13:26.349Z,99998.19
2024-02-29T17:18:28.048Z,99996.25
2024-02-29T17:23:29.715Z,99999.56
2024-02-29T17:28:32.793Z,99994.41
2024-02-29T17:33:34.462Z,99981.16
2024-02-29T17:38:36.118Z,99994.25
2024-02-29T17:43:40.081Z,99993.44
2024-02-29T17:48:41.833Z,99995.84
2024-02-29T17:53:43.530Z,99994.00
2024-02-29T17:58:46.697Z,99978.69
2024-02-29T18:03:48.335Z,99993.16
2024-02-29T18:08:50.019Z,99988.72
2024-02-29T18:13:53.058Z,99987.47
2024-02-29T18:18:54.754Z,99984.44
2024-02-29T18:23:56.434Z,99983.34
2024-02-29T18:29:01.174Z,99979.16
2024-02-29T18:34:02.789Z,99976.78
2024-02-29T18:39:04.722Z,99971.22
2024-02-29T18:44:07.767Z,99958.19
2024-02-29T18:49:10.272Z,99917.09
2024-02-29T18:54:12.348Z,99953.34
2024-02-29T18:59:15.422Z,99952.75
2024-02-29T19:04:17.310Z,99948.53
2024-02-29T19:09:19.242Z,99947.47
2024-02-29T19:14:22.262Z,99953.16
2024-02-29T19:19:24.051Z,99948.56
2024-02-29T19:24:25.733Z,99947.31
2024-02-29T19:29:28.704Z,99946.53
2024-02-29T19:34:30.394Z,99940.63
2024-02-29T19:39:32.080Z,99939.78
2024-02-29T19:44:35.226Z,99864.66
2024-02-29T19:49:37.451Z,99931.91
2024-02-29T19:54:39.363Z,99924.78
2024-02-29T19:59:42.357Z,99911.88
2024-02-29T20:04:44.129Z,99914.94
2024-02-29T20:09:47.869Z,99903.09
2024-02-29T20:14:50.972Z,99883.72
2024-02-29T20:19:52.696Z,99904.50
2024-02-29T20:24:54.364Z,99886.78
2024-02-29T20:29:57.503Z,99902.75
2024-02-29T20:34:59.453Z,99902.00
2024-02-29T20:40:01.190Z,99892.34
2024-02-29T20:45:05.248Z,99778.88
2024-02-29T20:50:07.167Z,99867.94
2024-02-29T20:55:09.217Z,99879.69
2024-02-29T21:00:13.615Z,99886.84
2024-02-29T21:05:15.439Z,99868.56
2024-02-29T21:10:17.896Z,99885.16
2024-02-29T21:15:20.912Z,99884.44
2024-02-29T21:20:22.691Z,99878.75
2024-02-29T21:25:24.955Z,99880.97
2024-02-29T21:30:28.291Z,99875.69
2024-02-29T21:35:30.148Z,99870.78
2024-02-29T21:40:32.712Z,99844.81
2024-02-29T21:45:35.778Z,99863.41
2024-02-29T21:50:37.428Z,99860.47
2024-02-29T21:55:39.095Z,99857.66
2024-02-29T22:00:42.218Z,99840.69
2024-02-29T22:05:43.901Z,99827.56
2024-02-29T22:10:47.269Z,99814.19
2024-02-29T22:15:50.421Z,99814.94
2024-02-29T22:20:52.373Z,99816.56
2024-02-29T22:25:54.118Z,99810.72
2024-02-29T22:30:57.332Z,99811.38
2024-02-29T22:35:59.875Z,99814.25
2024-02-29T22:41:01.561Z,99806.31
2024-02-29T22:46:04.916Z,99809.53
2024-02-29T22:51:06.447Z,99810.69
2024-02-29T22:56:08.165Z,99812.97
2024-02-29T23:01:12.875Z,99805.47
2024-02-29T23:06:14.549Z,99752.88
2024-02-29T23:11:16.226Z,99791.63
2024-02-29T23:16:19.478Z,99775.47
2024-02-29T23:21:21.204Z,99713.41
2024-02-29T23:26:22.890Z,99784.41
2024-02-29T23:31:25.977Z,99778.03
2024-02-29T23:36:27.628Z,99794.78
2024-02-29T23:41:29.299Z,99782.16
2024-02-29T23:46:32.379Z,99781.44
2024-02-29T23:51:34.856Z,99769.75
2024-02-29T23:56:36.477Z,99743.25
